sensor_id;sensor_type;location;lat;lon;timestamp;temperature;humidity
65864;SHT30;52639;51.180;20.460;2023-02-23T00:03:31;-3.23;86.95
65864;SHT30;52639;51.180;20.460;2023-02-23T00:07:41;-3.33;85.79
65864;SHT30;52639;51.180;20.460;2023-02-23T00:11:49;-3.46;85.18
65864;SHT30;52639;51.180;20.460;2023-02-23T00:15:55;-3.36;86.38
65864;SHT30;52639;51.180;20.460;2023-02-23T00:19:58;-3.34;88.62
65864;SHT30;52639;51.180;20.460;2023-02-23T00:24:11;-3.33;86.84
65864;SHT30;52639;51.180;20.460;2023-02-23T00:28:19;-3.40;86.30
65864;SHT30;52639;51.180;20.460;2023-02-23T00:32:23;-3.24;87.99
65864;SHT30;52639;51.180;20.460;2023-02-23T00:36:29;-3.14;88.71
65864;SHT30;52639;51.180;20.460;2023-02-23T00:40:41;-3.27;86.32
65864;SHT30;52639;51.180;20.460;2023-02-23T00:44:47;-3.36;86.38
65864;SHT30;52639;51.180;20.460;2023-02-23T00:48:55;-3.29;88.10
65864;SHT30;52639;51.180;20.460;2023-02-23T00:53:00;-3.20;88.13
65864;SHT30;52639;51.180;20.460;2023-02-23T00:57:08;-3.29;87.17
65864;SHT30;52639;51.180;20.460;2023-02-23T01:01:15;-3.37;86.74
65864;SHT30;52639;51.180;20.460;2023-02-23T01:28:36;-3.47;89.86
65864;SHT30;52639;51.180;20.460;2023-02-23T01:32:39;-3.44;90.13
65864;SHT30;52639;51.180;20.460;2023-02-23T01:36:44;-3.54;89.17
65864;SHT30;52639;51.180;20.460;2023-02-23T01:40:48;-3.57;90.10
65864;SHT30;52639;51.180;20.460;2023-02-23T01:49:44;-3.54;90.03
65864;SHT30;52639;51.180;20.460;2023-02-23T01:53:58;-3.46;90.93
65864;SHT30;52639;51.180;20.460;2023-02-23T01:58:10;-3.55;89.82
65864;SHT30;52639;51.180;20.460;2023-02-23T02:02:20;-3.60;89.26
65864;SHT30;52639;51.180;20.460;2023-02-23T02:06:36;-3.61;89.49
65864;SHT30;52639;51.180;20.460;2023-02-23T02:10:42;-3.46;92.10
65864;SHT30;52639;51.180;20.460;2023-02-23T02:14:57;-3.57;90.46
65864;SHT30;52639;51.180;20.460;2023-02-23T02:19:26;-3.47;91.60
65864;SHT30;52639;51.180;20.460;2023-02-23T02:23:56;-3.44;91.62
65864;SHT30;52639;51.180;20.460;2023-02-23T02:37:45;-3.48;91.36
65864;SHT30;52639;51.180;20.460;2023-02-23T02:42:07;-3.47;91.06
65864;SHT30;52639;51.180;20.460;2023-02-23T02:46:16;-3.48;91.92
65864;SHT30;52639;51.180;20.460;2023-02-23T02:50:31;-3.48;91.73
65864;SHT30;52639;51.180;20.460;2023-02-23T02:54:47;-3.57;91.16
65864;SHT30;52639;51.180;20.460;2023-02-23T02:58:54;-3.43;92.71
65864;SHT30;52639;51.180;20.460;2023-02-23T03:03:02;-3.52;92.16
65864;SHT30;52639;51.180;20.460;2023-02-23T03:07:28;-3.50;92.41
65864;SHT30;52639;51.180;20.460;2023-02-23T03:12:00;-3.52;91.65
65864;SHT30;52639;51.180;20.460;2023-02-23T03:16:31;-3.55;92.28
65864;SHT30;52639;51.180;20.460;2023-02-23T03:20:59;-3.57;92.56
65864;SHT30;52639;51.180;20.460;2023-02-23T03:25:28;-3.54;93.84
65864;SHT30;52639;51.180;20.460;2023-02-23T03:29:54;-3.52;92.86
65864;SHT30;52639;51.180;20.460;2023-02-23T03:34:22;-3.60;93.42
65864;SHT30;52639;51.180;20.460;2023-02-23T03:38:48;-3.52;93.98
65864;SHT30;52639;51.180;20.460;2023-02-23T03:43:14;-3.58;93.13
65864;SHT30;52639;51.180;20.460;2023-02-23T03:47:40;-3.55;93.61
65864;SHT30;52639;51.180;20.460;2023-02-23T03:52:06;-3.54;94.43
65864;SHT30;52639;51.180;20.460;2023-02-23T03:56:31;-3.65;93.25
65864;SHT30;52639;51.180;20.460;2023-02-23T04:00:55;-3.52;94.33
65864;SHT30;52639;51.180;20.460;2023-02-23T04:05:25;-3.54;94.47
65864;SHT30;52639;51.180;20.460;2023-02-23T04:09:48;-3.62;93.66
65864;SHT30;52639;51.180;20.460;2023-02-23T04:14:15;-3.71;93.11
65864;SHT30;52639;51.180;20.460;2023-02-23T04:18:21;-3.68;94.13
65864;SHT30;52639;51.180;20.460;2023-02-23T04:22:29;-3.65;94.32
65864;SHT30;52639;51.180;20.460;2023-02-23T04:26:32;-3.58;95.01
65864;SHT30;52639;51.180;20.460;2023-02-23T04:30:37;-3.64;94.35
65864;SHT30;52639;51.180;20.460;2023-02-23T04:34:43;-3.65;94.27
65864;SHT30;52639;51.180;20.460;2023-02-23T04:38:52;-3.67;94.48
65864;SHT30;52639;51.180;20.460;2023-02-23T04:42:56;-3.57;95.10
65864;SHT30;52639;51.180;20.460;2023-02-23T04:47:01;-3.57;94.94
65864;SHT30;52639;51.180;20.460;2023-02-23T04:51:07;-3.44;95.68
65864;SHT30;52639;51.180;20.460;2023-02-23T04:55:17;-3.51;94.74
65864;SHT30;52639;51.180;20.460;2023-02-23T04:59:21;-3.52;94.85
65864;SHT30;52639;51.180;20.460;2023-02-23T05:03:24;-3.55;94.31
65864;SHT30;52639;51.180;20.460;2023-02-23T05:07:27;-3.40;95.18
65864;SHT30;52639;51.180;20.460;2023-02-23T05:11:34;-3.51;93.95
65864;SHT30;52639;51.180;20.460;2023-02-23T05:15:40;-3.65;93.76
65864;SHT30;52639;51.180;20.460;2023-02-23T05:19:48;-3.60;93.83
65864;SHT30;52639;51.180;20.460;2023-02-23T05:23:52;-3.52;93.88
65864;SHT30;52639;51.180;20.460;2023-02-23T05:28:00;-3.55;93.23
65864;SHT30;52639;51.180;20.460;2023-02-23T05:32:03;-3.58;92.87
65864;SHT30;52639;51.180;20.460;2023-02-23T05:36:10;-3.50;93.91
65864;SHT30;52639;51.180;20.460;2023-02-23T05:40:14;-3.41;94.15
65864;SHT30;52639;51.180;20.460;2023-02-23T05:44:23;-3.39;93.70
65864;SHT30;52639;51.180;20.460;2023-02-23T05:48:28;-3.34;92.95
65864;SHT30;52639;51.180;20.460;2023-02-23T05:52:37;-3.23;93.66
65864;SHT30;52639;51.180;20.460;2023-02-23T05:56:43;-3.10;93.10
65864;SHT30;52639;51.180;20.460;2023-02-23T06:00:51;-2.90;92.93
65864;SHT30;52639;51.180;20.460;2023-02-23T06:04:57;-2.86;92.30
65864;SHT30;52639;51.180;20.460;2023-02-23T06:09:03;-2.73;91.96
65864;SHT30;52639;51.180;20.460;2023-02-23T06:13:09;-2.53;91.85
65864;SHT30;52639;51.180;20.460;2023-02-23T06:17:18;-2.44;91.06
65864;SHT30;52639;51.180;20.460;2023-02-23T06:21:24;-2.32;90.70
65864;SHT30;52639;51.180;20.460;2023-02-23T06:25:30;-2.12;90.62
65864;SHT30;52639;51.180;20.460;2023-02-23T06:29:36;-1.81;89.74
65864;SHT30;52639;51.180;20.460;2023-02-23T06:33:44;-0.75;88.00
65864;SHT30;52639;51.180;20.460;2023-02-23T06:37:48;0.32;84.24
65864;SHT30;52639;51.180;20.460;2023-02-23T06:41:54;0.72;82.74
65864;SHT30;52639;51.180;20.460;2023-02-23T06:46:00;0.64;80.41
65864;SHT30;52639;51.180;20.460;2023-02-23T06:50:07;0.48;81.06
65864;SHT30;52639;51.180;20.460;2023-02-23T06:54:10;0.31;81.23
65864;SHT30;52639;51.180;20.460;2023-02-23T06:58:13;0.54;82.50
65864;SHT30;52639;51.180;20.460;2023-02-23T07:02:16;2.22;79.62
65864;SHT30;52639;51.180;20.460;2023-02-23T07:06:21;3.67;72.77
65864;SHT30;52639;51.180;20.460;2023-02-23T07:10:26;4.12;71.41
65864;SHT30;52639;51.180;20.460;2023-02-23T07:14:32;5.32;71.17
65864;SHT30;52639;51.180;20.460;2023-02-23T07:18:35;6.34;71.31
65864;SHT30;52639;51.180;20.460;2023-02-23T07:22:45;6.74;70.10
65864;SHT30;52639;51.180;20.460;2023-02-23T07:26:51;5.98;66.35
65864;SHT30;52639;51.180;20.460;2023-02-23T07:30:55;6.67;67.90
65864;SHT30;52639;51.180;20.460;2023-02-23T07:35:03;5.45;71.98
65864;SHT30;52639;51.180;20.460;2023-02-23T07:39:13;6.07;68.84
65864;SHT30;52639;51.180;20.460;2023-02-23T07:43:17;7.26;69.59
65864;SHT30;52639;51.180;20.460;2023-02-23T07:47:24;7.73;63.74
65864;SHT30;52639;51.180;20.460;2023-02-23T07:51:31;7.77;64.88
65864;SHT30;52639;51.180;20.460;2023-02-23T07:55:38;8.69;67.28
65864;SHT30;52639;51.180;20.460;2023-02-23T07:59:42;8.57;64.50
65864;SHT30;52639;51.180;20.460;2023-02-23T08:03:48;9.18;62.92
65864;SHT30;52639;51.180;20.460;2023-02-23T08:07:51;9.87;64.42
65864;SHT30;52639;51.180;20.460;2023-02-23T08:12:01;10.48;65.27
65864;SHT30;52639;51.180;20.460;2023-02-23T08:16:07;11.12;63.49
65864;SHT30;52639;51.180;20.460;2023-02-23T08:20:13;10.22;64.31
65864;SHT30;52639;51.180;20.460;2023-02-23T08:24:25;10.01;63.05
65864;SHT30;52639;51.180;20.460;2023-02-23T08:28:34;9.94;62.91
65864;SHT30;52639;51.180;20.460;2023-02-23T08:32:42;9.76;60.92
65864;SHT30;52639;51.180;20.460;2023-02-23T08:36:45;9.61;59.30
65864;SHT30;52639;51.180;20.460;2023-02-23T08:40:49;9.86;61.79
65864;SHT30;52639;51.180;20.460;2023-02-23T08:44:57;10.08;63.25
65864;SHT30;52639;51.180;20.460;2023-02-23T08:49:02;9.63;61.24
65864;SHT30;52639;51.180;20.460;2023-02-23T08:53:06;9.02;59.91
65864;SHT30;52639;51.180;20.460;2023-02-23T08:57:11;9.14;62.85
65864;SHT30;52639;51.180;20.460;2023-02-23T09:05:38;10.54;60.66
65864;SHT30;52639;51.180;20.460;2023-02-23T09:09:43;10.55;60.22
65864;SHT30;52639;51.180;20.460;2023-02-23T09:13:47;10.64;56.30
65864;SHT30;52639;51.180;20.460;2023-02-23T09:17:51;11.05;59.11
65864;SHT30;52639;51.180;20.460;2023-02-23T09:21:59;10.89;58.34
65864;SHT30;52639;51.180;20.460;2023-02-23T09:26:06;11.66;58.65
65864;SHT30;52639;51.180;20.460;2023-02-23T09:30:13;11.08;58.65
65864;SHT30;52639;51.180;20.460;2023-02-23T09:34:21;11.12;60.02
65864;SHT30;52639;51.180;20.460;2023-02-23T09:38:25;11.94;58.81
65864;SHT30;52639;51.180;20.460;2023-02-23T09:42:36;12.13;58.58
65864;SHT30;52639;51.180;20.460;2023-02-23T09:46:51;11.15;59.46
65864;SHT30;52639;51.180;20.460;2023-02-23T09:50:59;10.78;58.46
65864;SHT30;52639;51.180;20.460;2023-02-23T09:55:11;10.72;60.62
65864;SHT30;52639;51.180;20.460;2023-02-23T09:59:20;10.93;58.66
65864;SHT30;52639;51.180;20.460;2023-02-23T10:03:28;10.88;58.02
65864;SHT30;52639;51.180;20.460;2023-02-23T10:07:40;10.66;58.45
65864;SHT30;52639;51.180;20.460;2023-02-23T10:11:50;10.86;58.34
65864;SHT30;52639;51.180;20.460;2023-02-23T10:16:01;10.45;58.56
65864;SHT30;52639;51.180;20.460;2023-02-23T10:20:13;10.82;57.78
65864;SHT30;52639;51.180;20.460;2023-02-23T10:24:24;10.68;58.67
65864;SHT30;52639;51.180;20.460;2023-02-23T10:28:34;9.51;59.82
65864;SHT30;52639;51.180;20.460;2023-02-23T10:32:40;8.71;62.13
65864;SHT30;52639;51.180;20.460;2023-02-23T10:36:46;7.98;62.42
65864;SHT30;52639;51.180;20.460;2023-02-23T10:40:54;7.75;61.67
65864;SHT30;52639;51.180;20.460;2023-02-23T10:44:59;7.56;60.80
65864;SHT30;52639;51.180;20.460;2023-02-23T10:49:02;7.77;59.11
65864;SHT30;52639;51.180;20.460;2023-02-23T10:53:13;7.93;61.50
65864;SHT30;52639;51.180;20.460;2023-02-23T10:57:21;7.87;59.82
65864;SHT30;52639;51.180;20.460;2023-02-23T11:01:35;7.55;60.05
65864;SHT30;52639;51.180;20.460;2023-02-23T11:05:44;7.85;60.16
65864;SHT30;52639;51.180;20.460;2023-02-23T11:09:48;7.69;60.55
65864;SHT30;52639;51.180;20.460;2023-02-23T11:13:51;7.52;59.71
65864;SHT30;52639;51.180;20.460;2023-02-23T11:17:57;7.53;59.19
65864;SHT30;52639;51.180;20.460;2023-02-23T11:22:01;7.56;58.83
65864;SHT30;52639;51.180;20.460;2023-02-23T11:30:35;7.82;58.70
65864;SHT30;52639;51.180;20.460;2023-02-23T11:34:45;7.76;59.68
65864;SHT30;52639;51.180;20.460;2023-02-23T11:38:59;7.86;59.37
65864;SHT30;52639;51.180;20.460;2023-02-23T11:43:07;7.51;57.15
65864;SHT30;52639;51.180;20.460;2023-02-23T11:47:16;7.49;59.09
65864;SHT30;52639;51.180;20.460;2023-02-23T11:51:28;7.73;59.41
65864;SHT30;52639;51.180;20.460;2023-02-23T11:55:32;7.56;58.06
65864;SHT30;52639;51.180;20.460;2023-02-23T11:59:38;7.62;59.93
65864;SHT30;52639;51.180;20.460;2023-02-23T12:03:45;7.72;60.22
65864;SHT30;52639;51.180;20.460;2023-02-23T12:07:54;7.62;59.20
65864;SHT30;52639;51.180;20.460;2023-02-23T12:12:03;7.75;57.13
65864;SHT30;52639;51.180;20.460;2023-02-23T12:16:12;7.79;60.57
65864;SHT30;52639;51.180;20.460;2023-02-23T12:20:22;7.56;58.73
65864;SHT30;52639;51.180;20.460;2023-02-23T12:24:35;7.65;60.10
65864;SHT30;52639;51.180;20.460;2023-02-23T12:28:46;7.66;61.30
65864;SHT30;52639;51.180;20.460;2023-02-23T12:32:53;7.65;59.75
65864;SHT30;52639;51.180;20.460;2023-02-23T12:37:01;7.45;60.52
65864;SHT30;52639;51.180;20.460;2023-02-23T12:41:12;7.58;61.24
65864;SHT30;52639;51.180;20.460;2023-02-23T12:45:21;7.52;61.54
65864;SHT30;52639;51.180;20.460;2023-02-23T12:49:30;7.56;61.94
65864;SHT30;52639;51.180;20.460;2023-02-23T12:53:39;7.62;61.26
65864;SHT30;52639;51.180;20.460;2023-02-23T12:57:48;7.72;61.94
65864;SHT30;52639;51.180;20.460;2023-02-23T13:01:53;7.39;60.65
65864;SHT30;52639;51.180;20.460;2023-02-23T13:06:04;7.33;62.69
65864;SHT30;52639;51.180;20.460;2023-02-23T13:10:19;7.53;62.66
65864;SHT30;52639;51.180;20.460;2023-02-23T13:14:29;7.38;62.45
65864;SHT30;52639;51.180;20.460;2023-02-23T13:18:41;7.28;62.24
65864;SHT30;52639;51.180;20.460;2023-02-23T13:22:50;7.19;61.62
65864;SHT30;52639;51.180;20.460;2023-02-23T13:27:00;7.29;62.86
65864;SHT30;52639;51.180;20.460;2023-02-23T13:31:16;7.56;63.20
65864;SHT30;52639;51.180;20.460;2023-02-23T13:35:21;7.45;63.04
65864;SHT30;52639;51.180;20.460;2023-02-23T13:39:36;7.28;63.62
65864;SHT30;52639;51.180;20.460;2023-02-23T13:43:45;7.21;64.38
65864;SHT30;52639;51.180;20.460;2023-02-23T13:47:56;7.18;64.58
65864;SHT30;52639;51.180;20.460;2023-02-23T13:52:12;7.16;64.25
65864;SHT30;52639;51.180;20.460;2023-02-23T13:56:19;7.18;64.00
65864;SHT30;52639;51.180;20.460;2023-02-23T14:00:23;7.25;63.89
65864;SHT30;52639;51.180;20.460;2023-02-23T14:04:33;7.12;64.30
65864;SHT30;52639;51.180;20.460;2023-02-23T14:08:38;7.02;64.71
65864;SHT30;52639;51.180;20.460;2023-02-23T14:13:03;6.87;65.41
65864;SHT30;52639;51.180;20.460;2023-02-23T14:21:32;6.60;65.76
65864;SHT30;52639;51.180;20.460;2023-02-23T14:25:48;6.41;66.34
65864;SHT30;52639;51.180;20.460;2023-02-23T14:30:14;6.22;66.73
65864;SHT30;52639;51.180;20.460;2023-02-23T14:34:19;6.10;66.97
65864;SHT30;52639;51.180;20.460;2023-02-23T14:38:30;6.03;67.15
65864;SHT30;52639;51.180;20.460;2023-02-23T14:42:37;5.95;67.42
65864;SHT30;52639;51.180;20.460;2023-02-23T15:07:34;5.42;68.78
65864;SHT30;52639;51.180;20.460;2023-02-23T15:11:50;5.37;69.49
65864;SHT30;52639;51.180;20.460;2023-02-23T15:15:55;5.34;69.86
65864;SHT30;52639;51.180;20.460;2023-02-23T15:20:03;5.27;69.32
65864;SHT30;52639;51.180;20.460;2023-02-23T15:24:12;5.14;70.83
65864;SHT30;52639;51.180;20.460;2023-02-23T15:28:26;5.07;70.62
65864;SHT30;52639;51.180;20.460;2023-02-23T15:32:30;4.93;71.11
65864;SHT30;52639;51.180;20.460;2023-02-23T15:36:34;4.87;71.55
65864;SHT30;52639;51.180;20.460;2023-02-23T15:40:47;4.70;71.21
65864;SHT30;52639;51.180;20.460;2023-02-23T15:44:58;4.56;71.70
65864;SHT30;52639;51.180;20.460;2023-02-23T15:49:08;4.40;72.64
65864;SHT30;52639;51.180;20.460;2023-02-23T15:53:27;4.29;73.69
65864;SHT30;52639;51.180;20.460;2023-02-23T15:57:46;4.12;72.10
65864;SHT30;52639;51.180;20.460;2023-02-23T16:01:53;3.95;72.59
65864;SHT30;52639;51.180;20.460;2023-02-23T16:06:03;3.85;74.01
65864;SHT30;52639;51.180;20.460;2023-02-23T16:10:19;3.73;72.74
65864;SHT30;52639;51.180;20.460;2023-02-23T16:14:31;3.73;74.13
65864;SHT30;52639;51.180;20.460;2023-02-23T16:22:48;3.37;74.61
65864;SHT30;52639;51.180;20.460;2023-02-23T16:26:56;3.24;75.13
65864;SHT30;52639;51.180;20.460;2023-02-23T16:31:06;3.19;75.16
65864;SHT30;52639;51.180;20.460;2023-02-23T16:35:16;3.03;73.93
65864;SHT30;52639;51.180;20.460;2023-02-23T17:21:12;2.68;76.52
65864;SHT30;52639;51.180;20.460;2023-02-23T17:25:17;2.59;77.44
65864;SHT30;52639;51.180;20.460;2023-02-23T17:29:21;2.52;76.89
65864;SHT30;52639;51.180;20.460;2023-02-23T17:33:30;2.39;76.34
65864;SHT30;52639;51.180;20.460;2023-02-23T17:37:41;2.41;77.42
65864;SHT30;52639;51.180;20.460;2023-02-23T17:41:45;2.53;76.98
65864;SHT30;52639;51.180;20.460;2023-02-23T17:45:53;2.77;79.73
65864;SHT30;52639;51.180;20.460;2023-02-23T17:49:59;2.96;78.99
65864;SHT30;52639;51.180;20.460;2023-02-23T17:54:13;3.10;76.08
65864;SHT30;52639;51.180;20.460;2023-02-23T17:58:26;3.17;76.08
65864;SHT30;52639;51.180;20.460;2023-02-23T18:02:38;3.24;75.72
65864;SHT30;52639;51.180;20.460;2023-02-23T18:06:46;3.31;77.44
65864;SHT30;52639;51.180;20.460;2023-02-23T18:10:55;3.31;75.74
65864;SHT30;52639;51.180;20.460;2023-02-23T18:15:07;3.40;77.49
65864;SHT30;52639;51.180;20.460;2023-02-23T18:34:02;3.54;76.47
65864;SHT30;52639;51.180;20.460;2023-02-23T18:38:11;3.58;77.24
65864;SHT30;52639;51.180;20.460;2023-02-23T18:42:19;3.58;76.82
65864;SHT30;52639;51.180;20.460;2023-02-23T18:46:27;3.58;76.59
65864;SHT30;52639;51.180;20.460;2023-02-23T18:50:38;3.58;76.73
65864;SHT30;52639;51.180;20.460;2023-02-23T18:54:43;3.64;77.05
65864;SHT30;52639;51.180;20.460;2023-02-23T18:58:49;3.67;77.00
65864;SHT30;52639;51.180;20.460;2023-02-23T19:02:56;3.70;76.98
65864;SHT30;52639;51.180;20.460;2023-02-23T19:07:03;3.74;76.02
65864;SHT30;52639;51.180;20.460;2023-02-23T19:16:12;3.75;76.99
65864;SHT30;52639;51.180;20.460;2023-02-23T19:20:18;3.78;76.98
65864;SHT30;52639;51.180;20.460;2023-02-23T19:24:28;3.78;76.55
65864;SHT30;52639;51.180;20.460;2023-02-23T19:28:33;3.78;77.05
65864;SHT30;52639;51.180;20.460;2023-02-23T19:32:38;3.85;77.30
65864;SHT30;52639;51.180;20.460;2023-02-23T19:36:46;3.92;77.54
65864;SHT30;52639;51.180;20.460;2023-02-23T19:41:10;3.98;77.33
65864;SHT30;52639;51.180;20.460;2023-02-23T19:45:21;4.05;77.05
65864;SHT30;52639;51.180;20.460;2023-02-23T19:49:32;4.02;76.83
65864;SHT30;52639;51.180;20.460;2023-02-23T19:53:45;4.09;77.52
65864;SHT30;52639;51.180;20.460;2023-02-23T19:57:55;4.15;78.83
65864;SHT30;52639;51.180;20.460;2023-02-23T20:02:01;4.26;77.95
65864;SHT30;52639;51.180;20.460;2023-02-23T20:06:09;4.35;77.73
65864;SHT30;52639;51.180;20.460;2023-02-23T20:10:17;4.45;77.75
65864;SHT30;52639;51.180;20.460;2023-02-23T20:14:33;4.48;77.33
65864;SHT30;52639;51.180;20.460;2023-02-23T20:18:41;4.56;77.28
65864;SHT30;52639;51.180;20.460;2023-02-23T20:22:51;4.60;76.34
65864;SHT30;52639;51.180;20.460;2023-02-23T20:26:56;4.69;77.15
65864;SHT30;52639;51.180;20.460;2023-02-23T20:31:10;4.73;76.62
65864;SHT30;52639;51.180;20.460;2023-02-23T20:35:19;4.79;76.62
65864;SHT30;52639;51.180;20.460;2023-02-23T20:39:28;4.76;76.81
65864;SHT30;52639;51.180;20.460;2023-02-23T20:43:34;4.81;77.12
65864;SHT30;52639;51.180;20.460;2023-02-23T20:47:50;4.83;76.53
65864;SHT30;52639;51.180;20.460;2023-02-23T20:52:01;4.80;77.00
65864;SHT30;52639;51.180;20.460;2023-02-23T20:56:07;4.87;76.79
65864;SHT30;52639;51.180;20.460;2023-02-23T21:00:34;4.88;76.31
65864;SHT30;52639;51.180;20.460;2023-02-23T21:04:41;4.90;77.28
65864;SHT30;52639;51.180;20.460;2023-02-23T21:08:47;4.85;76.96
65864;SHT30;52639;51.180;20.460;2023-02-23T21:12:52;4.91;76.77
65864;SHT30;52639;51.180;20.460;2023-02-23T21:16:58;4.93;77.71
65864;SHT30;52639;51.180;20.460;2023-02-23T21:21:09;4.95;76.93
65864;SHT30;52639;51.180;20.460;2023-02-23T21:25:17;4.91;76.76
65864;SHT30;52639;51.180;20.460;2023-02-23T21:29:23;4.94;77.63
65864;SHT30;52639;51.180;20.460;2023-02-23T21:33:29;4.91;76.98
65864;SHT30;52639;51.180;20.460;2023-02-23T21:37:37;4.90;77.12
65864;SHT30;52639;51.180;20.460;2023-02-23T21:41:43;4.90;77.76
65864;SHT30;52639;51.180;20.460;2023-02-23T21:45:50;4.94;77.45
65864;SHT30;52639;51.180;20.460;2023-02-23T21:49:55;5.01;77.50
65864;SHT30;52639;51.180;20.460;2023-02-23T21:54:05;4.95;77.06
65864;SHT30;52639;51.180;20.460;2023-02-23T21:58:12;5.01;77.51
65864;SHT30;52639;51.180;20.460;2023-02-23T22:02:15;4.97;77.29
65864;SHT30;52639;51.180;20.460;2023-02-23T22:06:22;5.03;77.80
65864;SHT30;52639;51.180;20.460;2023-02-23T22:10:30;4.97;77.36
65864;SHT30;52639;51.180;20.460;2023-02-23T22:14:34;4.91;78.02
65864;SHT30;52639;51.180;20.460;2023-02-23T22:18:39;4.94;77.66
65864;SHT30;52639;51.180;20.460;2023-02-23T22:22:46;5.07;77.66
65864;SHT30;52639;51.180;20.460;2023-02-23T22:26:55;5.00;77.39
65864;SHT30;52639;51.180;20.460;2023-02-23T22:31:01;4.98;77.83
65864;SHT30;52639;51.180;20.460;2023-02-23T22:35:09;5.04;77.78
65864;SHT30;52639;51.180;20.460;2023-02-23T22:39:14;5.05;77.61
65864;SHT30;52639;51.180;20.460;2023-02-23T22:43:24;5.04;77.63
65864;SHT30;52639;51.180;20.460;2023-02-23T22:47:32;5.11;78.14
65864;SHT30;52639;51.180;20.460;2023-02-23T22:51:38;5.11;78.40
65864;SHT30;52639;51.180;20.460;2023-02-23T22:55:45;5.08;78.31
65864;SHT30;52639;51.180;20.460;2023-02-23T22:59:53;5.13;78.04
65864;SHT30;52639;51.180;20.460;2023-02-23T23:04:00;4.98;78.84
65864;SHT30;52639;51.180;20.460;2023-02-23T23:08:10;5.00;79.18
65864;SHT30;52639;51.180;20.460;2023-02-23T23:12:13;5.00;79.68
65864;SHT30;52639;51.180;20.460;2023-02-23T23:16:21;4.97;78.88
65864;SHT30;52639;51.180;20.460;2023-02-23T23:20:25;4.88;79.05
65864;SHT30;52639;51.180;20.460;2023-02-23T23:24:30;4.84;79.56
65864;SHT30;52639;51.180;20.460;2023-02-23T23:28:40;4.70;79.25
65864;SHT30;52639;51.180;20.460;2023-02-23T23:32:51;4.52;79.40
65864;SHT30;52639;51.180;20.460;2023-02-23T23:36:59;4.42;79.50
65864;SHT30;52639;51.180;20.460;2023-02-23T23:41:07;4.32;80.16
65864;SHT30;52639;51.180;20.460;2023-02-23T23:45:16;4.30;79.78
65864;SHT30;52639;51.180;20.460;2023-02-23T23:49:28;4.16;79.48
65864;SHT30;52639;51.180;20.460;2023-02-23T23:53:34;4.18;80.22
65864;SHT30;52639;51.180;20.460;2023-02-23T23:57:40;4.08;80.26
